Time;durP1;ratioP1;P1;durP2;ratioP2;P2;SDS_P1;SDS_P2;PMS_P1;PMS_P2;Temp;Humidity;BMP_temperature;BMP_pressure;BME280_temperature;BME280_humidity;BME280_pressure;Samples;Min_cycle;Max_cycle;Signal;HPM_P1;HPM_P2
2020/12/27 00:02:17;;;;;;;33.00;11.30;;;;;;;-2.45;100.00;96276.09;4997604;28;20218;-67
2020/12/27 00:04:43;;;;;;;29.50;9.70;;;;;;;-2.49;100.00;96276.41;4997641;28;20203;-69
2020/12/27 00:07:12;;;;;;;15.17;6.73;;;;;;;-2.62;100.00;96284.06;4996976;28;20222;-68
2020/12/27 00:09:39;;;;;;;15.53;6.97;;;;;;;-2.83;100.00;96284.59;4997928;28;20218;-69
2020/12/27 00:12:05;;;;;;;13.40;6.40;;;;;;;-2.96;100.00;96289.69;4997602;28;20288;-70
2020/12/27 00:14:33;;;;;;;12.37;5.37;;;;;;;-2.83;100.00;96277.69;4997156;28;20202;-68
2020/12/27 00:17:02;;;;;;;13.07;5.83;;;;;;;-2.85;100.00;96281.28;4996869;28;20209;-69
2020/12/27 00:19:28;;;;;;;14.93;6.60;;;;;;;-2.83;100.00;96274.28;4997961;28;20218;-69
2020/12/27 00:21:54;;;;;;;11.33;5.30;;;;;;;-2.78;100.00;96260.16;4997025;28;20321;-70
2020/12/27 00:24:20;;;;;;;10.67;4.93;;;;;;;-2.74;100.00;96259.06;4997285;28;20206;-69
2020/12/27 00:26:46;;;;;;;10.03;5.30;;;;;;;-2.89;100.00;96261.78;4998270;28;20688;-70
2020/12/27 00:29:12;;;;;;;13.00;5.30;;;;;;;-2.87;100.00;96254.78;4996831;28;20237;-70
2020/12/27 00:31:38;;;;;;;12.47;5.43;;;;;;;-2.85;100.00;96240.88;4997306;28;20316;-70
2020/12/27 00:34:04;;;;;;;7.50;4.50;;;;;;;-2.75;100.00;96238.53;4996772;28;20207;-69
2020/12/27 00:36:30;;;;;;;9.00;4.17;;;;;;;-2.66;100.00;96243.09;4996536;28;20927;-68
2020/12/27 00:38:56;;;;;;;8.03;4.37;;;;;;;-2.76;100.00;96245.44;4997769;28;20203;-70
2020/12/27 00:41:24;;;;;;;8.90;4.33;;;;;;;-2.74;100.00;96242.78;4996769;28;20209;-68
2020/12/27 00:43:51;;;;;;;7.20;4.13;;;;;;;-2.69;100.00;96236.38;4996857;28;20241;-70
2020/12/27 00:46:17;;;;;;;8.57;4.63;;;;;;;-2.74;100.00;96243.59;4996722;28;20198;-70
2020/12/27 00:48:45;;;;;;;7.30;4.00;;;;;;;-2.69;100.00;96233.00;4996930;28;20674;-69
2020/12/27 00:51:11;;;;;;;8.93;4.57;;;;;;;-2.66;100.00;96225.03;4996620;28;20234;-68
2020/12/27 00:53:37;;;;;;;10.97;4.30;;;;;;;-2.77;100.00;96228.31;4997535;28;20248;-68
2020/12/27 00:56:03;;;;;;;9.80;4.43;;;;;;;-2.66;100.00;96230.22;4996086;28;20678;-69
2020/12/27 00:58:31;;;;;;;17.30;6.83;;;;;;;-2.82;100.00;96222.63;4997120;28;20214;-69
2020/12/27 01:00:57;;;;;;;49.80;15.20;;;;;;;-2.86;100.00;96213.44;4997257;28;21351;-68
2020/12/27 01:03:24;;;;;;;31.70;9.97;;;;;;;-2.89;100.00;96207.63;4997114;28;20227;-68
2020/12/27 01:05:51;;;;;;;41.37;11.93;;;;;;;-2.93;100.00;96191.56;4998659;28;20558;-70
2020/12/27 01:08:17;;;;;;;52.60;13.90;;;;;;;-2.94;100.00;96183.91;5000763;28;20284;-68
2020/12/27 01:10:43;;;;;;;27.37;8.37;;;;;;;-3.02;100.00;96176.69;5000236;28;20656;-69
2020/12/27 01:13:09;;;;;;;32.23;7.63;;;;;;;-3.00;100.00;96179.97;5001127;28;20229;-70
2020/12/27 01:15:38;;;;;;;24.87;7.73;;;;;;;-3.08;100.00;96173.69;4999596;28;20199;-70
2020/12/27 01:18:04;;;;;;;18.13;5.53;;;;;;;-3.07;100.00;96166.75;5000824;28;20301;-69
2020/12/27 01:20:30;;;;;;;11.33;5.20;;;;;;;-3.03;100.00;96153.56;5000462;28;20210;-69
2020/12/27 01:22:57;;;;;;;9.00;4.97;;;;;;;-3.11;100.00;96153.25;5000348;28;20313;-69
2020/12/27 01:25:23;;;;;;;10.07;4.67;;;;;;;-3.19;100.00;96147.75;4999805;28;20553;-68
2020/12/27 01:27:49;;;;;;;10.90;4.20;;;;;;;-3.13;100.00;96147.38;5000569;28;20217;-70
2020/12/27 01:30:15;;;;;;;13.83;5.90;;;;;;;-3.17;100.00;96147.66;4999601;28;20287;-68
2020/12/27 01:32:41;;;;;;;13.97;5.60;;;;;;;-3.13;100.00;96139.66;5000712;28;20238;-70
2020/12/27 01:35:07;;;;;;;13.67;5.53;;;;;;;-3.14;100.00;96132.84;5000056;28;20252;-68
2020/12/27 01:37:34;;;;;;;9.57;4.63;;;;;;;-3.10;100.00;96125.75;5000566;28;20214;-69
2020/12/27 01:40:01;;;;;;;11.10;4.20;;;;;;;-3.04;100.00;96122.75;4999983;28;20677;-70
2020/12/27 01:42:26;;;;;;;7.60;3.93;;;;;;;-3.02;100.00;96114.84;5000847;28;20230;-69
2020/12/27 01:44:52;;;;;;;11.17;4.57;;;;;;;-3.08;100.00;96114.41;5000273;28;20700;-68
2020/12/27 01:47:22;;;;;;;8.20;4.20;;;;;;;-3.19;100.00;96109.09;4999042;28;20285;-68
2020/12/27 01:49:50;;;;;;;8.10;4.30;;;;;;;-3.05;100.00;96106.47;5000084;28;20218;-69
2020/12/27 01:52:16;;;;;;;9.90;4.20;;;;;;;-2.95;100.00;96104.97;5000089;28;20283;-68
2020/12/27 01:54:43;;;;;;;8.27;4.03;;;;;;;-2.99;100.00;96103.50;4999850;28;20202;-69
2020/12/27 01:57:12;;;;;;;8.17;4.30;;;;;;;-3.00;100.00;96091.53;4998964;28;20207;-68
2020/12/27 01:59:39;;;;;;;10.67;4.73;;;;;;;-3.00;100.00;96088.97;4999778;28;20214;-70
2020/12/27 02:02:06;;;;;;;10.50;4.23;;;;;;;-2.99;100.00;96085.47;4999212;28;20230;-68
2020/12/27 02:04:33;;;;;;;8.70;4.53;;;;;;;-2.94;100.00;96085.97;4999870;28;20670;-70
2020/12/27 02:06:59;;;;;;;10.40;4.43;;;;;;;-2.97;100.00;96081.03;4998962;28;20210;-70
2020/12/27 02:09:26;;;;;;;8.00;4.10;;;;;;;-3.08;100.00;96067.19;4999682;28;20627;-68
2020/12/27 02:12:02;;;;;;;9.17;3.93;;;;;;;-3.06;100.00;96066.16;4999070;28;20241;-68
2020/12/27 02:14:29;;;;;;;8.57;4.20;;;;;;;-3.03;100.00;96060.78;4999862;28;20214;-70
2020/12/27 02:16:55;;;;;;;7.97;3.77;;;;;;;-2.99;100.00;96063.09;4998038;28;20217;-69
2020/12/27 02:19:21;;;;;;;9.90;4.53;;;;;;;-2.97;100.00;96055.25;4998946;28;20285;-68
2020/12/27 02:21:48;;;;;;;8.77;4.10;;;;;;;-2.98;100.00;96043.28;4999253;28;20751;-69
2020/12/27 02:24:14;;;;;;;9.03;4.00;;;;;;;-3.05;100.00;96042.06;4999638;28;20237;-69
2020/12/27 02:26:53;;;;;;;7.30;3.97;;;;;;;-3.03;100.00;96032.44;4998041;28;20203;-69
2020/12/27 02:29:19;;;;;;;7.57;3.77;;;;;;;-3.12;100.00;96022.75;4999692;28;20264;-70
2020/12/27 02:31:45;;;;;;;7.57;4.00;;;;;;;-3.09;100.00;96025.16;4998994;28;20234;-69
2020/12/27 02:34:11;;;;;;;9.07;4.20;;;;;;;-3.05;100.00;96013.69;4998504;28;20214;-69
2020/12/27 02:36:37;;;;;;;8.50;4.07;;;;;;;-3.06;100.00;96000.94;4998863;28;20214;-69
2020/12/27 02:39:08;;;;;;;9.50;4.33;;;;;;;-3.03;100.00;95995.56;4998853;28;20267;-69
2020/12/27 02:41:35;;;;;;;10.93;4.37;;;;;;;-3.08;100.00;95983.00;4999632;28;20227;-69
2020/12/27 02:44:01;;;;;;;8.00;4.03;;;;;;;-3.09;100.00;95977.91;4998586;28;20212;-68
2020/12/27 02:46:28;;;;;;;12.27;4.50;;;;;;;-3.02;100.00;95962.78;4999068;28;20219;-69
2020/12/27 02:48:55;;;;;;;6.13;3.80;;;;;;;-3.05;100.00;95938.97;4998544;28;20209;-70
2020/12/27 02:51:22;;;;;;;8.37;3.77;;;;;;;-3.19;100.00;95931.34;4998540;28;20239;-69
2020/12/27 02:53:48;;;;;;;10.03;3.90;;;;;;;-3.21;100.00;95928.03;4999282;28;20218;-69
2020/12/27 02:56:14;;;;;;;7.03;3.77;;;;;;;-3.21;100.00;95933.19;4998587;28;21052;-69
2020/12/27 02:58:41;;;;;;;7.30;3.50;;;;;;;-3.28;100.00;95926.00;4998270;28;20222;-69
2020/12/27 03:01:07;;;;;;;8.00;3.90;;;;;;;-3.26;100.00;95924.13;4998963;28;20553;-69
2020/12/27 03:03:33;;;;;;;6.90;3.50;;;;;;;-3.26;100.00;95918.97;4998767;28;20301;-69
2020/12/27 03:05:59;;;;;;;6.33;3.63;;;;;;;-3.13;100.00;95914.66;4997834;28;20202;-68
2020/12/27 03:08:25;;;;;;;7.93;3.60;;;;;;;-3.05;100.00;95902.06;4998409;28;20224;-69
2020/12/27 03:10:51;;;;;;;6.17;3.73;;;;;;;-3.13;100.00;95900.03;4998125;28;20692;-69
2020/12/27 03:13:17;;;;;;;12.57;5.17;;;;;;;-3.12;100.00;95896.50;4998298;28;20226;-69
2020/12/27 03:15:44;;;;;;;14.10;4.73;;;;;;;-3.09;100.00;95880.84;4998008;28;20325;-69
2020/12/27 03:18:10;;;;;;;12.33;5.50;;;;;;;-3.08;100.00;95871.34;4998205;28;20206;-68
2020/12/27 03:20:36;;;;;;;7.90;3.40;;;;;;;-3.04;100.00;95873.63;4998105;28;20209;-68
2020/12/27 03:23:02;;;;;;;7.27;4.03;;;;;;;-2.88;100.00;95869.91;4998045;28;20226;-69
2020/12/27 03:25:28;;;;;;;6.90;3.40;;;;;;;-2.95;100.00;95860.13;4997655;28;21332;-69
2020/12/27 03:27:54;;;;;;;7.63;3.57;;;;;;;-2.97;100.00;95856.81;4996392;28;20218;-68
2020/12/27 03:30:20;;;;;;;6.43;3.37;;;;;;;-3.10;100.00;95855.19;4997634;28;20295;-68
2020/12/27 03:32:47;;;;;;;6.70;3.20;;;;;;;-3.06;100.00;95841.97;4998624;28;20230;-69
2020/12/27 03:35:13;;;;;;;7.20;3.27;;;;;;;-3.18;100.00;95827.38;4997466;28;20255;-68
2020/12/27 03:37:39;;;;;;;6.90;3.03;;;;;;;-3.12;100.00;95821.78;4998439;28;20217;-69
2020/12/27 03:40:06;;;;;;;8.67;4.30;;;;;;;-3.12;100.00;95806.31;4997760;28;21134;-69
2020/12/27 03:42:32;;;;;;;9.23;3.53;;;;;;;-3.00;100.00;95800.34;4998049;28;20218;-69
2020/12/27 03:44:59;;;;;;;5.43;2.97;;;;;;;-2.98;100.00;95795.88;4997284;28;20259;-69
2020/12/27 03:47:25;;;;;;;7.00;3.47;;;;;;;-3.02;100.00;95794.44;4998152;28;20209;-68
2020/12/27 03:49:51;;;;;;;6.33;3.10;;;;;;;-3.07;100.00;95790.56;4998532;28;20213;-69
2020/12/27 03:52:18;;;;;;;7.60;3.47;;;;;;;-3.03;100.00;95779.09;4997953;28;20241;-69
2020/12/27 03:54:44;;;;;;;5.53;2.80;;;;;;;-3.12;100.00;95779.75;4998099;28;20211;-68
2020/12/27 03:57:09;;;;;;;5.93;3.20;;;;;;;-2.99;99.87;95768.50;4997107;28;20210;-68
2020/12/27 03:59:35;;;;;;;6.63;3.23;;;;;;;-3.08;100.00;95758.84;4997676;28;20297;-69
2020/12/27 04:02:02;;;;;;;4.43;2.67;;;;;;;-3.01;100.00;95760.03;4998414;28;20223;-69
2020/12/27 04:04:27;;;;;;;8.30;3.23;;;;;;;-3.16;100.00;95755.94;4997449;28;20275;-69
2020/12/27 04:06:54;;;;;;;5.23;3.07;;;;;;;-3.12;100.00;95751.41;4996269;28;21340;-70
2020/12/27 04:09:20;;;;;;;6.77;3.50;;;;;;;-3.15;100.00;95744.72;4998246;28;20207;-68
2020/12/27 04:11:46;;;;;;;5.27;3.00;;;;;;;-3.05;100.00;95722.53;4997141;28;20230;-68
2020/12/27 04:14:12;;;;;;;4.40;2.73;;;;;;;-2.98;100.00;95726.31;4997139;28;20212;-68
2020/12/27 04:16:38;;;;;;;7.43;3.10;;;;;;;-3.00;100.00;95710.16;4996533;28;20221;-69
2020/12/27 04:19:04;;;;;;;8.50;3.10;;;;;;;-3.02;100.00;95719.72;4998262;28;20207;-69
2020/12/27 04:21:30;;;;;;;5.13;2.83;;;;;;;-3.01;100.00;95713.66;4997364;28;20206;-70
2020/12/27 04:23:57;;;;;;;6.33;2.97;;;;;;;-3.06;100.00;95704.59;4997391;28;21081;-69
2020/12/27 04:26:23;;;;;;;5.77;2.83;;;;;;;-2.93;100.00;95701.03;4996784;28;20211;-68
2020/12/27 04:28:49;;;;;;;6.23;2.90;;;;;;;-3.02;100.00;95693.97;4997036;28;20579;-69
2020/12/27 04:31:18;;;;;;;8.00;3.13;;;;;;;-2.95;100.00;95695.19;4997063;28;20471;-69
2020/12/27 04:33:44;;;;;;;6.33;2.90;;;;;;;-3.07;100.00;95698.63;4997674;28;20206;-69
2020/12/27 04:36:10;;;;;;;5.77;3.27;;;;;;;-2.97;100.00;95695.28;4996530;28;20766;-69
2020/12/27 04:38:36;;;;;;;5.23;3.17;;;;;;;-3.08;100.00;95689.25;4997342;28;20209;-69
2020/12/27 04:41:03;;;;;;;5.60;3.07;;;;;;;-3.07;100.00;95688.31;5001101;28;20909;-68
2020/12/27 04:43:29;;;;;;;5.27;2.93;;;;;;;-2.97;100.00;95689.31;5000968;28;20234;-69
2020/12/27 04:45:59;;;;;;;5.57;2.80;;;;;;;-2.98;100.00;95682.50;5000826;28;20281;-68
2020/12/27 04:48:25;;;;;;;7.80;3.43;;;;;;;-3.07;100.00;95670.28;5001483;28;20210;-70
2020/12/27 04:50:52;;;;;;;4.50;2.83;;;;;;;-3.07;100.00;95661.72;5001123;28;20220;-69
2020/12/27 04:53:18;;;;;;;6.50;2.70;;;;;;;-3.13;100.00;95655.28;5000734;28;20228;-69
2020/12/27 04:55:45;;;;;;;5.17;2.97;;;;;;;-3.08;100.00;95654.94;5000329;28;20290;-69
2020/12/27 04:58:18;;;;;;;7.27;2.80;;;;;;;-3.08;100.00;95655.78;5001019;28;20207;-69
2020/12/27 05:00:44;;;;;;;4.97;2.50;;;;;;;-3.03;100.00;95640.78;5001417;28;20206;-69
2020/12/27 05:03:10;;;;;;;5.17;2.73;;;;;;;-3.12;100.00;95636.28;5000582;28;21251;-69
2020/12/27 05:05:36;;;;;;;4.50;2.77;;;;;;;-3.03;100.00;95630.47;4999974;28;20210;-70
2020/12/27 05:08:03;;;;;;;7.83;2.90;;;;;;;-3.08;100.00;95624.84;5000368;28;20228;-69
2020/12/27 05:10:29;;;;;;;6.07;3.07;;;;;;;-3.06;100.00;95617.00;5000956;28;20211;-70
2020/12/27 05:12:55;;;;;;;5.67;2.80;;;;;;;-3.10;100.00;95616.41;5001056;28;20604;-70
2020/12/27 05:15:22;;;;;;;5.10;2.70;;;;;;;-3.00;100.00;95607.06;5000289;28;20206;-70
2020/12/27 05:17:49;;;;;;;6.63;3.43;;;;;;;-3.17;100.00;95594.59;5000178;28;20272;-68
2020/12/27 05:20:16;;;;;;;4.50;2.50;;;;;;;-3.14;100.00;95596.94;5001558;28;20208;-70
2020/12/27 05:22:42;;;;;;;5.20;2.53;;;;;;;-3.07;99.69;95589.59;5000515;28;20765;-68
2020/12/27 05:25:09;;;;;;;5.57;3.00;;;;;;;-3.07;100.00;95587.03;4999369;28;20273;-69
2020/12/27 05:27:42;;;;;;;3.97;2.70;;;;;;;-3.10;100.00;95588.06;5000450;28;20284;-70
2020/12/27 05:30:08;;;;;;;7.63;3.10;;;;;;;-3.11;100.00;95578.69;5000589;28;20228;-71
2020/12/27 05:32:35;;;;;;;4.13;2.60;;;;;;;-3.12;100.00;95571.88;4999919;28;20238;-70
2020/12/27 05:35:09;;;;;;;5.37;2.67;;;;;;;-3.14;100.00;95566.03;4999331;28;20208;-69
2020/12/27 05:37:37;;;;;;;4.40;2.93;;;;;;;-3.20;100.00;95563.91;5000648;28;20353;-69
2020/12/27 05:40:04;;;;;;;4.00;2.57;;;;;;;-3.08;100.00;95563.03;5000214;28;20217;-69
2020/12/27 05:42:30;;;;;;;4.73;2.77;;;;;;;-3.05;100.00;95560.22;4999913;28;20268;-70
2020/12/27 05:44:56;;;;;;;4.93;2.60;;;;;;;-3.05;100.00;95557.63;5000273;28;20214;-70
2020/12/27 05:47:22;;;;;;;5.17;2.70;;;;;;;-3.07;100.00;95559.50;4999453;28;20202;-70
2020/12/27 05:49:48;;;;;;;5.87;2.47;;;;;;;-3.06;99.70;95566.28;5000082;28;20292;-71
2020/12/27 05:52:16;;;;;;;23.47;2.60;;;;;;;-3.00;99.91;95560.69;4999262;28;20230;-70
2020/12/27 05:54:46;;;;;;;6.07;3.27;;;;;;;-3.03;100.00;95554.00;4999706;28;20213;-69
2020/12/27 05:57:15;;;;;;;5.77;2.70;;;;;;;-3.12;100.00;95546.13;4999382;28;20202;-70
2020/12/27 05:59:44;;;;;;;6.27;2.57;;;;;;;-3.07;100.00;95549.19;5000000;28;21175;-70
2020/12/27 06:02:37;;;;;;;7.13;3.17;;;;;;;-3.09;100.00;95550.22;4999802;28;21190;-68
2020/12/27 06:05:12;;;;;;;5.80;2.80;;;;;;;-3.15;100.00;95537.81;4998880;28;20209;-70
2020/12/27 06:07:39;;;;;;;5.83;3.07;;;;;;;-3.12;100.00;95535.00;4999910;28;20229;-68
2020/12/27 06:10:08;;;;;;;4.73;2.80;;;;;;;-3.03;100.00;95526.59;4999434;28;20213;-69
2020/12/27 06:13:11;;;;;;;5.13;2.57;;;;;;;-3.10;99.70;95522.84;5000010;28;20236;-68
2020/12/27 06:15:45;;;;;;;3.83;2.40;;;;;;;-3.00;99.38;95520.28;4998979;28;20236;-70
2020/12/27 06:18:12;;;;;;;6.50;3.30;;;;;;;-3.09;98.93;95504.69;4999898;28;20228;-69
2020/12/27 06:20:41;;;;;;;9.47;3.50;;;;;;;-3.14;99.81;95511.09;4999199;28;20689;-70
2020/12/27 06:23:07;;;;;;;10.70;4.77;;;;;;;-3.07;100.00;95507.16;4999361;28;20273;-70
2020/12/27 06:25:35;;;;;;;8.47;4.23;;;;;;;-3.15;99.89;95507.72;4998515;28;20210;-70
2020/12/27 06:28:02;;;;;;;22.73;7.13;;;;;;;-3.07;100.00;95513.13;4999795;28;20209;-70
2020/12/27 06:30:34;;;;;;;15.47;5.33;;;;;;;-3.01;99.19;95517.81;4999309;28;20883;-70
2020/12/27 06:33:09;;;;;;;6.10;3.60;;;;;;;-2.98;97.87;95512.44;4999617;28;20237;-68
2020/12/27 06:35:37;;;;;;;32.37;10.07;;;;;;;-2.97;98.30;95509.72;4997908;28;20201;-68
2020/12/27 06:38:14;;;;;;;10.90;4.03;;;;;;;-3.02;97.35;95503.28;4999704;28;20713;-69
2020/12/27 06:40:40;;;;;;;6.43;3.53;;;;;;;-3.21;97.58;95491.88;4999145;28;20663;-70
2020/12/27 06:43:17;;;;;;;17.80;5.47;;;;;;;-3.41;98.64;95477.91;4998757;28;20221;-70
2020/12/27 06:45:43;;;;;;;16.83;5.20;;;;;;;-3.42;99.64;95478.84;4998028;28;20278;-68
2020/12/27 06:48:09;;;;;;;17.10;5.27;;;;;;;-3.46;99.49;95471.47;4999563;28;20213;-69
2020/12/27 06:50:47;;;;;;;16.90;5.50;;;;;;;-3.49;100.00;95469.94;4999244;28;20209;-70
2020/12/27 06:53:40;;;;;;;15.60;5.47;;;;;;;-3.48;100.00;95456.09;4998430;28;20255;-68
2020/12/27 06:56:09;;;;;;;10.97;4.37;;;;;;;-3.46;99.78;95453.44;4998254;28;20220;-71
2020/12/27 06:58:35;;;;;;;12.87;4.60;;;;;;;-3.46;100.00;95438.81;4999122;28;20206;-69
2020/12/27 07:01:15;;;;;;;8.43;3.80;;;;;;;-3.48;99.99;95430.34;4998228;28;20707;-70
2020/12/27 07:03:42;;;;;;;11.63;4.37;;;;;;;-3.46;100.00;95422.53;4998885;28;20220;-70
2020/12/27 07:06:20;;;;;;;8.43;3.87;;;;;;;-3.41;98.69;95416.09;4998113;28;20250;-69
2020/12/27 07:08:47;;;;;;;8.33;4.07;;;;;;;-3.34;99.24;95412.13;4998785;28;20222;-70
2020/12/27 07:11:18;;;;;;;17.33;5.53;;;;;;;-3.28;98.78;95406.53;4998456;28;20212;-71
2020/12/27 07:13:46;;;;;;;17.20;4.90;;;;;;;-3.30;98.55;95413.53;4998198;28;20300;-71
2020/12/27 07:16:14;;;;;;;14.63;4.77;;;;;;;-3.31;98.08;95401.63;4997142;28;20260;-69
2020/12/27 07:18:41;;;;;;;10.60;3.80;;;;;;;-3.26;97.83;95393.53;4998575;28;20209;-68
2020/12/27 07:21:12;;;;;;;19.87;5.57;;;;;;;-3.22;96.99;95385.47;4999112;28;20208;-70
2020/12/27 07:23:46;;;;;;;6.67;2.80;;;;;;;-3.25;96.70;95383.13;4998597;28;20727;-69
2020/12/27 07:26:13;;;;;;;20.77;4.67;;;;;;;-3.20;97.38;95373.28;4997431;28;20210;-71
2020/12/27 07:28:39;;;;;;;5.70;2.43;;;;;;;-3.21;96.48;95375.97;4998514;28;20206;-68
2020/12/27 07:31:06;;;;;;;5.47;2.60;;;;;;;-3.30;96.82;95356.88;4998706;28;20738;-69
2020/12/27 07:33:33;;;;;;;6.57;2.50;;;;;;;-3.28;97.13;95355.03;4997810;28;20716;-68
2020/12/27 07:36:01;;;;;;;4.33;1.90;;;;;;;-3.31;97.17;95355.25;4997739;28;20207;-69
2020/12/27 07:38:59;;;;;;;6.00;2.50;;;;;;;-3.25;96.88;95344.47;4998378;28;20211;-71
2020/12/27 07:41:27;;;;;;;7.60;3.07;;;;;;;-3.25;97.64;95344.47;4998019;28;20624;-70
2020/12/27 07:43:54;;;;;;;12.77;4.37;;;;;;;-3.17;97.18;95337.00;4997970;28;20724;-70
2020/12/27 07:46:21;;;;;;;12.07;4.17;;;;;;;-3.13;96.59;95333.25;4997162;28;20205;-70
2020/12/27 07:48:48;;;;;;;6.57;3.10;;;;;;;-3.08;96.37;95335.47;4997504;28;20631;-70
2020/12/27 07:51:15;;;;;;;6.00;2.63;;;;;;;-3.04;96.54;95329.97;4998366;28;20573;-71
2020/12/27 07:53:45;;;;;;;12.20;4.53;;;;;;;-3.02;96.40;95325.50;4997843;28;20270;-70
2020/12/27 07:56:14;;;;;;;6.93;2.67;;;;;;;-3.04;95.54;95321.41;4995476;28;20331;-68
2020/12/27 07:58:45;;;;;;;6.90;2.73;;;;;;;-3.02;96.52;95325.50;4997156;28;20216;-68
2020/12/27 08:01:17;;;;;;;7.50;2.03;;;;;;;-2.94;95.96;95316.25;4997720;28;20296;-69
2020/12/27 08:03:43;;;;;;;3.27;1.90;;;;;;;-2.90;95.77;95316.84;4997659;28;20214;-68
2020/12/27 08:06:09;;;;;;;4.37;2.00;;;;;;;-2.89;94.76;95300.41;4997261;28;20206;-69
2020/12/27 08:08:35;;;;;;;7.00;2.27;;;;;;;-2.93;95.60;95293.88;4997570;28;20229;-70
2020/12/27 08:11:02;;;;;;;4.53;2.27;;;;;;;-2.91;95.30;95289.44;4997814;28;20203;-69
2020/12/27 08:13:28;;;;;;;4.13;2.20;;;;;;;-2.97;95.98;95279.59;4997220;28;20230;-68
2020/12/27 08:15:55;;;;;;;11.10;4.40;;;;;;;-2.88;95.10;95279.72;4995534;28;20204;-69
2020/12/27 08:18:21;;;;;;;4.20;2.30;;;;;;;-2.90;94.47;95262.72;4997382;28;20206;-71
2020/12/27 08:20:48;;;;;;;10.30;2.17;;;;;;;-2.87;94.29;95254.75;4996963;28;20213;-71
2020/12/27 08:23:15;;;;;;;4.33;1.73;;;;;;;-2.86;94.33;95253.81;4997462;28;20700;-70
2020/12/27 08:25:41;;;;;;;5.20;2.23;;;;;;;-2.83;96.43;95253.56;4996608;28;20672;-69
2020/12/27 08:28:12;;;;;;;4.70;2.33;;;;;;;-2.73;94.19;95242.41;4997421;28;20209;-70
2020/12/27 08:30:39;;;;;;;2.43;1.77;;;;;;;-2.77;93.86;95237.63;4997760;28;20213;-68
2020/12/27 08:33:13;;;;;;;3.23;1.83;;;;;;;-2.67;93.99;95243.66;4996802;28;20321;-70
2020/12/27 08:35:43;;;;;;;8.73;4.13;;;;;;;-2.63;94.79;95239.91;4996352;28;20210;-70
2020/12/27 08:38:33;;;;;;;2.87;1.87;;;;;;;-2.57;93.81;95229.09;4997458;28;20322;-69
2020/12/27 08:41:06;;;;;;;3.40;2.13;;;;;;;-2.50;94.00;95225.09;4996581;28;20664;-69
2020/12/27 08:43:43;;;;;;;4.53;2.27;;;;;;;-2.40;94.09;95216.50;4995068;28;20622;-69
2020/12/27 08:46:13;;;;;;;5.90;2.43;;;;;;;-2.42;94.22;95212.41;4995996;28;20206;-71
2020/12/27 08:48:51;;;;;;;5.30;2.57;;;;;;;-2.39;92.05;95218.94;4997503;28;20307;-69
2020/12/27 08:51:20;;;;;;;4.13;2.03;;;;;;;-2.37;91.93;95222.22;4996506;28;20231;-69
2020/12/27 08:53:46;;;;;;;3.73;1.63;;;;;;;-2.33;92.32;95218.44;4997369;28;20674;-70
2020/12/27 08:56:13;;;;;;;2.53;1.57;;;;;;;-2.34;92.40;95216.00;4996796;28;20213;-68
2020/12/27 08:58:39;;;;;;;7.80;2.93;;;;;;;-2.25;93.18;95200.56;4996796;28;20217;-70
2020/12/27 09:01:21;;;;;;;4.30;2.20;;;;;;;-2.20;91.55;95195.03;4997224;28;20210;-70
2020/12/27 09:03:48;;;;;;;5.87;2.17;;;;;;;-2.16;91.47;95191.28;4996769;28;20297;-68
2020/12/27 09:06:14;;;;;;;5.97;2.90;;;;;;;-2.13;92.33;95181.50;4996373;28;20328;-71
2020/12/27 09:08:40;;;;;;;4.10;1.77;;;;;;;-2.13;91.26;95173.75;4996826;28;20214;-70
2020/12/27 09:11:06;;;;;;;4.20;2.40;;;;;;;-2.01;90.70;95177.06;4996487;28;20240;-69
2020/12/27 09:13:35;;;;;;;5.47;2.20;;;;;;;-2.01;90.44;95175.34;4996923;28;20238;-68
2020/12/27 09:16:01;;;;;;;7.07;2.83;;;;;;;-1.88;91.21;95175.94;4996166;28;20346;-69
2020/12/27 09:18:29;;;;;;;2.60;1.63;;;;;;;-1.86;90.69;95171.44;4997662;28;20207;-70
2020/12/27 09:20:58;;;;;;;3.43;1.83;;;;;;;-1.87;91.05;95169.84;4996868;28;20205;-68
2020/12/27 09:23:24;;;;;;;4.13;2.00;;;;;;;-1.80;90.46;95168.38;4994520;28;20327;-70
2020/12/27 09:26:04;;;;;;;6.77;2.43;;;;;;;-1.78;91.18;95163.91;4996646;28;20207;-70
2020/12/27 09:28:32;;;;;;;4.53;2.07;;;;;;;-1.64;90.20;95153.22;4999858;28;21181;-70
2020/12/27 09:31:00;;;;;;;4.93;2.10;;;;;;;-1.53;90.91;95141.00;5000036;28;20207;-68
2020/12/27 09:33:26;;;;;;;5.00;2.00;;;;;;;-1.46;90.65;95118.88;5000802;28;20341;-70
2020/12/27 09:35:55;;;;;;;14.27;3.70;;;;;;;-1.38;91.41;95111.28;4999315;28;20673;-70
2020/12/27 09:38:26;;;;;;;6.77;2.90;;;;;;;-1.25;89.69;95101.50;5000124;28;20298;-69
2020/12/27 09:41:02;;;;;;;6.13;2.47;;;;;;;-1.15;89.24;95097.97;5000231;28;20253;-70
2020/12/27 09:43:28;;;;;;;3.63;1.90;;;;;;;-1.27;88.70;95089.66;4999753;28;20252;-69
2020/12/27 09:45:54;;;;;;;3.97;2.23;;;;;;;-1.15;89.09;95079.88;4999281;28;20207;-71
2020/12/27 09:48:30;;;;;;;5.30;2.00;;;;;;;-1.23;88.01;95080.69;5000521;28;20216;-71
2020/12/27 09:50:56;;;;;;;4.63;2.47;;;;;;;-1.11;87.98;95078.69;4999223;28;20296;-70
2020/12/27 09:53:23;;;;;;;6.90;2.43;;;;;;;-1.05;88.44;95072.16;4999184;28;20803;-70
2020/12/27 09:55:50;;;;;;;4.40;2.30;;;;;;;-0.99;88.24;95061.28;4998076;28;20248;-68
2020/12/27 09:58:16;;;;;;;4.10;2.07;;;;;;;-0.96;88.62;95054.03;5000595;28;20202;-70
2020/12/27 10:00:41;;;;;;;3.97;2.13;;;;;;;-0.89;88.66;95046.56;4999234;28;20871;-71
2020/12/27 10:03:07;;;;;;;4.40;2.00;;;;;;;-0.79;88.86;95037.84;5000106;28;20225;-69
2020/12/27 10:05:33;;;;;;;4.53;2.63;;;;;;;-0.84;88.18;95034.88;4999586;28;20218;-70
2020/12/27 10:07:59;;;;;;;5.23;2.83;;;;;;;-0.79;89.34;95019.75;4999226;28;20214;-70
2020/12/27 10:10:25;;;;;;;7.13;3.30;;;;;;;-0.67;88.44;95018.63;4999509;28;20309;-69
2020/12/27 10:12:52;;;;;;;4.47;2.60;;;;;;;-0.61;87.56;95010.31;4999085;28;20316;-71
2020/12/27 10:15:18;;;;;;;6.33;2.97;;;;;;;-0.54;88.52;94993.28;4999373;28;20583;-70
2020/12/27 10:17:44;;;;;;;12.70;4.80;;;;;;;-0.62;86.70;94993.16;4999563;28;20281;-70
2020/12/27 10:20:10;;;;;;;5.73;2.70;;;;;;;-0.68;87.15;94979.97;5000035;28;20211;-71
2020/12/27 10:22:36;;;;;;;5.30;3.00;;;;;;;-0.54;87.49;94970.78;4999231;28;20273;-70
2020/12/27 10:25:03;;;;;;;10.27;3.20;;;;;;;-0.52;86.44;94968.91;4998636;28;20301;-71
2020/12/27 10:27:32;;;;;;;4.10;2.20;;;;;;;-0.52;85.60;94962.91;4999149;28;20198;-69
2020/12/27 10:29:59;;;;;;;11.07;3.77;;;;;;;-0.56;86.21;94964.13;5000123;28;20206;-71
2020/12/27 10:32:25;;;;;;;11.27;2.63;;;;;;;-0.41;85.35;94947.19;4998596;28;20230;-70
2020/12/27 10:34:51;;;;;;;9.27;2.97;;;;;;;-0.42;85.29;94936.06;4999433;28;20207;-70
2020/12/27 10:37:17;;;;;;;8.73;3.03;;;;;;;-0.30;85.35;94926.31;4998329;28;20352;-70
2020/12/27 10:39:43;;;;;;;7.07;3.13;;;;;;;-0.24;84.93;94923.16;4998994;28;20209;-68
2020/12/27 10:42:09;;;;;;;5.30;2.53;;;;;;;-0.22;84.58;94924.63;4999337;28;20231;-70
2020/12/27 10:44:35;;;;;;;7.53;3.70;;;;;;;-0.16;84.58;94918.09;4999236;28;20208;-71
2020/12/27 10:47:02;;;;;;;6.73;3.47;;;;;;;-0.23;84.50;94904.06;4998428;28;20234;-69
2020/12/27 10:49:28;;;;;;;6.13;2.80;;;;;;;-0.24;84.03;94889.50;4999413;28;20211;-71
2020/12/27 10:51:54;;;;;;;8.53;3.30;;;;;;;-0.11;84.13;94879.63;4998729;28;20744;-70
2020/12/27 10:54:20;;;;;;;7.27;3.53;;;;;;;-0.19;83.59;94876.94;4998967;28;20203;-70
2020/12/27 10:56:47;;;;;;;7.20;2.87;;;;;;;-0.15;83.66;94871.34;4997866;28;20610;-71
2020/12/27 10:59:14;;;;;;;6.53;3.10;;;;;;;-0.13;82.82;94863.44;4999524;28;20214;-71
2020/12/27 11:01:44;;;;;;;6.70;3.40;;;;;;;-0.10;84.72;94870.88;4998866;28;20222;-70
2020/12/27 11:04:12;;;;;;;6.73;2.83;;;;;;;-0.07;83.16;94855.88;4998655;28;20215;-71
2020/12/27 11:06:38;;;;;;;6.43;2.83;;;;;;;-0.02;83.68;94852.88;4998204;28;20202;-71
2020/12/27 11:09:04;;;;;;;4.67;2.50;;;;;;;-0.01;82.06;94857.91;4998183;28;20206;-70
2020/12/27 11:11:30;;;;;;;8.07;3.20;;;;;;;-0.04;82.79;94849.59;4998414;28;20265;-70
2020/12/27 11:13:56;;;;;;;15.67;5.67;;;;;;;0.00;83.57;94842.22;4996670;28;21295;-71
2020/12/27 11:16:22;;;;;;;9.13;3.67;;;;;;;-0.01;83.36;94830.22;4997348;28;20237;-68
2020/12/27 11:18:48;;;;;;;9.70;3.20;;;;;;;0.02;83.25;94816.16;4998179;28;20215;-70
2020/12/27 11:21:15;;;;;;;4.77;2.90;;;;;;;0.18;82.62;94809.34;4997800;28;20206;-70
2020/12/27 11:23:41;;;;;;;7.57;3.30;;;;;;;0.16;82.84;94810.47;4995512;28;20242;-73
2020/12/27 11:26:07;;;;;;;8.30;2.90;;;;;;;0.13;82.86;94797.84;4997791;28;20290;-71
2020/12/27 11:28:33;;;;;;;7.03;3.00;;;;;;;0.22;83.21;94784.78;4998334;28;20309;-72
2020/12/27 11:30:59;;;;;;;6.30;2.73;;;;;;;0.31;81.62;94765.75;4997687;28;20242;-72